Sarahsville, OH (43779)

9:32 AM EDT on June 30, 2015 (GMT -0400)
APRSWXNET | | Change Station
CLOSE
Current Station
Personal Weather Station
Location: Buffalo, OH
Elevation: 941 ft
Nearby Weather Stations

Elev 941 ft 39.90 °N, 81.50 °W | Updated 39 minutes ago

Overcast
Overcast
66 °F
Feels Like 66 °F
N
1
Wind Variable Wind from WNW
Gusts 5.0 mph

Today
High -- | Low -- °F
--% Chance of Precip.
Yesterday
High -- | Low -- °F
Precip. -- in
6:00 AM 8:58 PM
Waxing Gibbous, 97% visible
Pressure 29.88 in
Visibility 3.0 miles
Clouds Mostly Cloudy 800 ft
Overcast 1500 ft
Dew Point 63 °F
Humidity 89%
Rainfall in
Snow Depth Not available.
UV 1 out of 12
Pollen .20 out of 12
Air Quality Not available.
Flu Activity Sporadic
SPECI KZZV 301319Z AUTO 22007KT 3SM BR BKN008 OVC015 19/17 A2988 RMK AO2 CIG 005V010 T01940172

More Conditions Fewer Conditions

Pressure 29.88 in
Visibility 3.0 miles
Clouds Mostly Cloudy 800 ft
Overcast 1500 ft
Dew Point 63 °F
Humidity 89%
Rainfall in
Snow Depth Not available.
UV 1 out of 12
Pollen .20 out of 12
Air Quality Not available.
Flu Activity Sporadic
SPECI KZZV 301319Z AUTO 22007KT 3SM BR BKN008 OVC015 19/17 A2988 RMK AO2 CIG 005V010 T01940172

More Conditions Fewer Conditions

10-Day Weather Forecast

×

Almanac

Astronomy

Jun. 30, 2015 Rise Set
Actual Time
Civil Twilight
Nautical Twilight
Astronomical Twilight
Moon
Length of Visible Light
Length of Day
Tomorrow will be .
, % of the Moon is Illuminated

Today's Extremes

State Highs State Lows

Community

WunderPhotos

Upload Photos

1,833,994 photos uploaded!

WunderBlogs® & News

Nearby

Air Quality

  Air Quality AQ Index Pollutant
Not available.

Snow Depth

Station Depth Elevation

Earthquake Activity

City Distance Mag. Time & Date
Minimum magnitude displayed is 2.5.

Coastal Water Temperatures

Place Temperature

Stations

Nearby Weather Stations

Station Location Temp. Windchill Dew Point Humidity Wind Precip. Elev Updated Type